Time;durP1;ratioP1;P1;durP2;ratioP2;P2;SDS_P1;SDS_P2;PMS_P1;PMS_P2;Temp;Humidity;BMP_temperature;BMP_pressure;BME280_temperature;BME280_humidity;BME280_pressure;Samples;Min_cycle;Max_cycle;Signal;HPM_P1;HPM_P2
2021/03/14 00:00:00;;;;;;;4.07;1.17;;;;;;;;;;5055252;28;20036;-74
2021/03/14 00:02:26;;;;;;;1.75;0.68;;;;;;;;;;5071834;28;20071;-73
2021/03/14 00:04:51;;;;;;;2.33;0.90;;;;;;;;;;5072992;28;20060;-74
2021/03/14 00:07:17;;;;;;;1.92;0.50;;;;;;;;;;5055328;28;20102;-73
2021/03/14 00:09:42;;;;;;;2.88;0.60;;;;;;;;;;5038227;28;20418;-73
2021/03/14 00:12:08;;;;;;;2.10;0.68;;;;;;;;;;5071524;28;20454;-74
2021/03/14 00:14:33;;;;;;;2.70;0.70;;;;;;;;;;5023206;28;20451;-74
2021/03/14 00:16:59;;;;;;;4.20;1.20;;;;;;;;;;5016732;28;20510;-74
2021/03/14 00:19:24;;;;;;;1.98;0.60;;;;;;;;;;5031516;28;20128;-73
2021/03/14 00:21:50;;;;;;;2.53;0.90;;;;;;;;;;5048016;28;20060;-73
2021/03/14 00:24:15;;;;;;;1.67;0.40;;;;;;;;;;5031463;28;20400;-73
2021/03/14 00:26:42;;;;;;;1.80;0.65;;;;;;;;;;5031596;28;20037;-73
2021/03/14 00:29:07;;;;;;;2.35;0.65;;;;;;;;;;5015223;28;20160;-73
2021/03/14 00:31:33;;;;;;;2.13;0.68;;;;;;;;;;5031757;28;20526;-73
2021/03/14 00:33:58;;;;;;;2.30;0.68;;;;;;;;;;5047860;28;20108;-73
2021/03/14 00:36:23;;;;;;;2.22;0.70;;;;;;;;;;5015039;28;20680;-73
2021/03/14 00:38:49;;;;;;;2.85;0.77;;;;;;;;;;5032262;28;20060;-74
2021/03/14 00:41:14;;;;;;;2.28;0.70;;;;;;;;;;5038649;28;20048;-74
2021/03/14 00:43:40;;;;;;;1.48;0.60;;;;;;;;;;5071018;28;20466;-73
2021/03/14 00:46:05;;;;;;;2.38;0.52;;;;;;;;;;5054554;28;20070;-74
2021/03/14 00:48:31;;;;;;;3.33;1.10;;;;;;;;;;5053974;28;20093;-74
2021/03/14 00:50:56;;;;;;;2.28;0.98;;;;;;;;;;5045410;28;20397;-74
2021/03/14 00:53:22;;;;;;;2.42;0.90;;;;;;;;;;5014530;28;20044;-74
2021/03/14 00:55:48;;;;;;;1.77;0.68;;;;;;;;;;5030062;28;20250;-74
2021/03/14 00:58:13;;;;;;;2.25;0.75;;;;;;;;;;5014610;28;20077;-74
2021/03/14 01:00:39;;;;;;;1.25;0.45;;;;;;;;;;4998218;28;20033;-74
2021/03/14 01:03:04;;;;;;;2.28;0.80;;;;;;;;;;5030726;28;20034;-74
2021/03/14 01:05:30;;;;;;;3.20;1.48;;;;;;;;;;5014530;28;20029;-73
2021/03/14 01:07:55;;;;;;;2.00;0.75;;;;;;;;;;5031364;28;20074;-74
2021/03/14 01:10:21;;;;;;;2.28;0.55;;;;;;;;;;5030435;28;20048;-74
2021/03/14 01:12:46;;;;;;;1.98;0.52;;;;;;;;;;5014322;28;20411;-74
2021/03/14 01:15:12;;;;;;;2.55;0.60;;;;;;;;;;5047803;28;20037;-74
2021/03/14 01:17:38;;;;;;;2.97;0.95;;;;;;;;;;5033828;28;20036;-74
2021/03/14 01:20:09;;;;;;;2.10;0.70;;;;;;;;;;5034002;28;20538;-74
2021/03/14 01:22:34;;;;;;;2.53;0.70;;;;;;;;;;5034418;28;20072;-74
2021/03/14 01:25:00;;;;;;;2.42;0.93;;;;;;;;;;5033777;28;20032;-74
2021/03/14 01:27:25;;;;;;;2.20;0.68;;;;;;;;;;5030652;28;20462;-74
2021/03/14 01:29:51;;;;;;;2.25;0.60;;;;;;;;;;5013943;28;20116;-74
2021/03/14 01:32:17;;;;;;;2.13;0.80;;;;;;;;;;5013826;28;20064;-74
2021/03/14 01:34:42;;;;;;;2.08;0.70;;;;;;;;;;5030496;28;20034;-74
2021/03/14 01:37:08;;;;;;;2.55;0.85;;;;;;;;;;5014569;28;20049;-74
2021/03/14 01:39:33;;;;;;;2.05;0.50;;;;;;;;;;5013650;28;20179;-74
2021/03/14 01:41:58;;;;;;;1.80;0.60;;;;;;;;;;5047703;28;20095;-74
2021/03/14 01:44:24;;;;;;;2.83;1.75;;;;;;;;;;5033655;28;20114;-74
2021/03/14 01:46:49;;;;;;;1.38;0.52;;;;;;;;;;5033318;28;20410;-74
2021/03/14 01:49:15;;;;;;;1.95;0.60;;;;;;;;;;5050216;28;20033;-74
2021/03/14 01:51:40;;;;;;;2.80;1.10;;;;;;;;;;5013360;28;20045;-74
2021/03/14 01:54:07;;;;;;;2.05;0.85;;;;;;;;;;5030210;28;20499;-74
2021/03/14 01:56:32;;;;;;;1.67;0.60;;;;;;;;;;5030400;28;20037;-74
2021/03/14 01:58:57;;;;;;;1.75;0.60;;;;;;;;;;4997283;28;20120;-74
2021/03/14 02:01:23;;;;;;;2.70;1.23;;;;;;;;;;5013384;28;20411;-74
2021/03/14 02:03:48;;;;;;;2.35;0.55;;;;;;;;;;5013944;28;20393;-73
2021/03/14 02:06:14;;;;;;;1.98;0.50;;;;;;;;;;4997564;28;20041;-74
2021/03/14 02:08:39;;;;;;;2.25;0.60;;;;;;;;;;5030045;28;20034;-74
2021/03/14 02:11:06;;;;;;;1.92;0.88;;;;;;;;;;5030092;28;20058;-73
2021/03/14 02:13:44;;;;;;;1.67;0.60;;;;;;;;;;5013680;28;20025;-74
2021/03/14 02:16:12;;;;;;;1.88;0.70;;;;;;;;;;5013629;28;20072;-74
2021/03/14 02:18:38;;;;;;;2.22;0.75;;;;;;;;;;5030098;28;20105;-74
2021/03/14 02:21:04;;;;;;;2.13;0.70;;;;;;;;;;5030012;28;20044;-74
2021/03/14 02:23:38;;;;;;;2.55;0.80;;;;;;;;;;5030309;28;20034;-74
2021/03/14 02:26:09;;;;;;;1.40;0.70;;;;;;;;;;5035491;28;20048;-74
2021/03/14 02:28:35;;;;;;;2.17;0.75;;;;;;;;;;5033936;28;20029;-74
2021/03/14 02:31:01;;;;;;;2.13;0.50;;;;;;;;;;5050629;28;20045;-74
2021/03/14 02:33:28;;;;;;;2.00;0.60;;;;;;;;;;5017393;28;20108;-74
2021/03/14 02:35:53;;;;;;;2.90;0.75;;;;;;;;;;5034090;28;20041;-74
2021/03/14 02:38:19;;;;;;;2.08;0.65;;;;;;;;;;5033454;28;20036;-74
2021/03/14 02:40:44;;;;;;;3.65;0.77;;;;;;;;;;5026618;28;20055;-74
2021/03/14 02:43:10;;;;;;;1.88;0.68;;;;;;;;;;5057055;28;20040;-74
2021/03/14 02:45:35;;;;;;;2.67;0.70;;;;;;;;;;5057251;28;20093;-74
2021/03/14 02:48:02;;;;;;;2.95;0.80;;;;;;;;;;5040298;28;20032;-74
2021/03/14 02:50:27;;;;;;;3.20;1.00;;;;;;;;;;5044953;28;20037;-74
2021/03/14 02:52:53;;;;;;;3.00;1.27;;;;;;;;;;5019904;28;20044;-74
2021/03/14 02:55:22;;;;;;;3.42;1.27;;;;;;;;;;5036688;28;20420;-73
2021/03/14 02:57:48;;;;;;;3.83;1.13;;;;;;;;;;5037164;28;20564;-74
2021/03/14 03:00:19;;;;;;;2.88;1.27;;;;;;;;;;5036416;28;20103;-73
2021/03/14 03:02:46;;;;;;;2.40;0.85;;;;;;;;;;5036948;28;20037;-74
2021/03/14 03:05:13;;;;;;;1.98;0.60;;;;;;;;;;5037187;28;20037;-74
2021/03/14 03:07:38;;;;;;;3.13;0.82;;;;;;;;;;5036406;28;20506;-74
2021/03/14 03:10:05;;;;;;;2.22;0.90;;;;;;;;;;5036168;28;20041;-74
2021/03/14 03:12:30;;;;;;;3.13;0.90;;;;;;;;;;5036606;28;20491;-74
2021/03/14 03:14:55;;;;;;;3.53;0.85;;;;;;;;;;5052586;28;20041;-74
2021/03/14 03:17:24;;;;;;;2.88;0.73;;;;;;;;;;5036273;28;20403;-74
2021/03/14 03:19:51;;;;;;;2.63;0.80;;;;;;;;;;5036353;28;20037;-73
2021/03/14 03:22:16;;;;;;;2.65;0.80;;;;;;;;;;5035974;28;20122;-73
2021/03/14 03:24:42;;;;;;;3.13;0.80;;;;;;;;;;5019413;28;20052;-74
2021/03/14 03:27:07;;;;;;;2.90;0.95;;;;;;;;;;5019647;28;20029;-74
2021/03/14 03:29:33;;;;;;;3.17;1.55;;;;;;;;;;5018925;28;20776;-74
2021/03/14 03:31:58;;;;;;;2.35;0.80;;;;;;;;;;5036082;28;20388;-74
2021/03/14 03:34:23;;;;;;;4.68;1.08;;;;;;;;;;5035582;28;20454;-73
2021/03/14 03:36:49;;;;;;;2.80;1.00;;;;;;;;;;5036004;28;20450;-74
2021/03/14 03:39:14;;;;;;;2.50;0.90;;;;;;;;;;5035663;28;20037;-73
2021/03/14 03:41:59;;;;;;;3.70;0.95;;;;;;;;;;5031943;28;20045;-74
2021/03/14 03:44:25;;;;;;;4.28;1.30;;;;;;;;;;5033795;28;20045;-74
2021/03/14 03:46:52;;;;;;;3.63;1.52;;;;;;;;;;5032889;28;20033;-74
2021/03/14 03:49:17;;;;;;;3.45;0.95;;;;;;;;;;5034252;28;20030;-74
2021/03/14 03:51:42;;;;;;;3.55;0.95;;;;;;;;;;5035478;28;20035;-74
2021/03/14 03:54:08;;;;;;;4.25;1.20;;;;;;;;;;5019088;28;20076;-74
2021/03/14 03:56:33;;;;;;;4.35;1.35;;;;;;;;;;5019029;28;20045;-74
2021/03/14 03:59:02;;;;;;;4.93;1.98;;;;;;;;;;5035562;28;20114;-74
2021/03/14 04:01:28;;;;;;;3.92;1.08;;;;;;;;;;5035365;28;20032;-74
2021/03/14 04:03:53;;;;;;;3.75;1.42;;;;;;;;;;5035506;28;20115;-74
2021/03/14 04:06:18;;;;;;;3.30;1.10;;;;;;;;;;5018856;28;20452;-74
2021/03/14 04:08:45;;;;;;;4.30;1.13;;;;;;;;;;5035078;28;20041;-74
2021/03/14 04:11:16;;;;;;;3.25;0.90;;;;;;;;;;5068320;28;20039;-74
2021/03/14 04:13:42;;;;;;;4.05;0.90;;;;;;;;;;5035313;28;20514;-74
2021/03/14 04:16:07;;;;;;;3.75;1.15;;;;;;;;;;5018921;28;20037;-74
2021/03/14 04:18:33;;;;;;;3.85;0.75;;;;;;;;;;5035202;28;20036;-74
2021/03/14 04:20:58;;;;;;;5.05;1.20;;;;;;;;;;5018459;28;20037;-74
2021/03/14 04:23:24;;;;;;;3.40;1.05;;;;;;;;;;5018330;28;20132;-74
2021/03/14 04:25:50;;;;;;;4.85;1.35;;;;;;;;;;5035153;28;20111;-74
2021/03/14 04:28:16;;;;;;;2.90;1.05;;;;;;;;;;5035078;28;20033;-74
2021/03/14 04:30:42;;;;;;;4.18;1.08;;;;;;;;;;5018366;28;20094;-74
2021/03/14 04:33:08;;;;;;;2.20;0.90;;;;;;;;;;5034950;28;20033;-74
2021/03/14 04:35:34;;;;;;;3.70;0.90;;;;;;;;;;5018360;28;20064;-74
2021/03/14 04:37:59;;;;;;;3.88;1.27;;;;;;;;;;5034874;28;20104;-74
2021/03/14 04:40:25;;;;;;;3.88;0.82;;;;;;;;;;5037228;28;20094;-74
2021/03/14 04:42:52;;;;;;;3.22;0.90;;;;;;;;;;5054562;28;20407;-74
2021/03/14 04:45:17;;;;;;;3.13;0.95;;;;;;;;;;5054762;28;20059;-74
2021/03/14 04:47:44;;;;;;;4.40;0.90;;;;;;;;;;5037138;28;20503;-74
2021/03/14 04:50:11;;;;;;;4.72;1.58;;;;;;;;;;5045220;28;20415;-74
2021/03/14 04:52:37;;;;;;;3.13;1.52;;;;;;;;;;5034483;28;20060;-74
2021/03/14 04:55:03;;;;;;;5.25;1.42;;;;;;;;;;5017964;28;20071;-74
2021/03/14 04:57:28;;;;;;;2.17;0.52;;;;;;;;;;5051053;28;20110;-74
2021/03/14 04:59:54;;;;;;;4.40;1.50;;;;;;;;;;5033967;28;20087;-74
2021/03/14 05:02:19;;;;;;;3.42;1.00;;;;;;;;;;5017689;28;20096;-74
2021/03/14 05:04:44;;;;;;;3.40;1.10;;;;;;;;;;5017769;28;20043;-74
2021/03/14 05:07:13;;;;;;;4.78;1.20;;;;;;;;;;5033944;28;20044;-74
2021/03/14 05:09:40;;;;;;;3.78;0.90;;;;;;;;;;5033745;28;20040;-74
2021/03/14 05:12:06;;;;;;;4.55;1.67;;;;;;;;;;5017925;28;20045;-74
2021/03/14 05:14:32;;;;;;;3.40;1.35;;;;;;;;;;5034274;28;20108;-74
2021/03/14 05:16:57;;;;;;;4.88;1.05;;;;;;;;;;5017684;28;20047;-74
2021/03/14 05:19:23;;;;;;;5.15;1.58;;;;;;;;;;5033896;28;20041;-74
2021/03/14 05:21:48;;;;;;;3.30;1.30;;;;;;;;;;5033727;28;20098;-74
2021/03/14 05:24:14;;;;;;;3.97;1.48;;;;;;;;;;5033423;28;20037;-74
2021/03/14 05:26:40;;;;;;;4.15;1.00;;;;;;;;;;5034042;28;20469;-74
2021/03/14 05:29:06;;;;;;;3.72;1.33;;;;;;;;;;5050482;28;20040;-74
2021/03/14 05:31:33;;;;;;;10.27;2.78;;;;;;;;;;5034013;28;20407;-74
2021/03/14 05:34:00;;;;;;;2.92;1.02;;;;;;;;;;5034092;28;20571;-74
2021/03/14 05:36:26;;;;;;;4.95;1.90;;;;;;;;;;5017608;28;20040;-74
2021/03/14 05:38:52;;;;;;;4.20;1.35;;;;;;;;;;5017104;28;20411;-74
2021/03/14 05:41:18;;;;;;;3.90;0.90;;;;;;;;;;5013553;28;20049;-74
2021/03/14 05:43:43;;;;;;;3.72;1.05;;;;;;;;;;5030201;28;20044;-74
2021/03/14 05:46:10;;;;;;;4.40;1.10;;;;;;;;;;5014050;28;20088;-74
2021/03/14 05:48:36;;;;;;;4.22;1.20;;;;;;;;;;5014285;28;20083;-74
2021/03/14 05:51:01;;;;;;;3.80;1.38;;;;;;;;;;5029722;28;20039;-74
2021/03/14 05:53:27;;;;;;;5.70;1.50;;;;;;;;;;5016821;28;20037;-74
2021/03/14 05:55:52;;;;;;;3.47;0.95;;;;;;;;;;5033701;28;20047;-74
2021/03/14 05:58:18;;;;;;;3.88;1.70;;;;;;;;;;5018807;28;20307;-74
2021/03/14 06:00:43;;;;;;;3.78;1.35;;;;;;;;;;5021629;28;20396;-74
2021/03/14 06:03:09;;;;;;;4.72;1.35;;;;;;;;;;5038108;28;20069;-74
2021/03/14 06:05:34;;;;;;;4.40;1.52;;;;;;;;;;5037677;28;20041;-74
2021/03/14 06:08:00;;;;;;;4.38;1.05;;;;;;;;;;5037336;28;20032;-74
2021/03/14 06:10:25;;;;;;;2.70;1.02;;;;;;;;;;5053986;28;20040;-73
2021/03/14 06:12:51;;;;;;;3.47;1.45;;;;;;;;;;5037786;28;20415;-74
2021/03/14 06:15:17;;;;;;;3.47;1.20;;;;;;;;;;5037261;28;20041;-74
2021/03/14 06:17:42;;;;;;;7.25;1.50;;;;;;;;;;5020921;28;20561;-74
2021/03/14 06:20:09;;;;;;;4.90;1.33;;;;;;;;;;5020695;28;20048;-76
2021/03/14 06:22:34;;;;;;;3.70;1.27;;;;;;;;;;5037116;28;20068;-76
2021/03/14 06:24:59;;;;;;;4.75;1.20;;;;;;;;;;5037399;28;20402;-77
2021/03/14 06:27:29;;;;;;;5.03;1.75;;;;;;;;;;5037238;28;20040;-76
2021/03/14 06:29:54;;;;;;;4.88;1.20;;;;;;;;;;5054777;28;20058;-76
2021/03/14 06:32:20;;;;;;;3.47;1.27;;;;;;;;;;5037367;28;20025;-76
2021/03/14 06:34:45;;;;;;;4.55;1.23;;;;;;;;;;5053710;28;20399;-76
2021/03/14 06:37:12;;;;;;;4.38;1.33;;;;;;;;;;5036968;28;20430;-77
2021/03/14 06:39:39;;;;;;;5.28;1.25;;;;;;;;;;5035018;28;20122;-77
2021/03/14 06:42:05;;;;;;;3.17;1.25;;;;;;;;;;5015927;28;20504;-77
2021/03/14 06:44:34;;;;;;;15.73;1.98;;;;;;;;;;4982492;28;20044;-76
2021/03/14 06:47:00;;;;;;;8.02;1.30;;;;;;;;;;5001084;28;20033;-76
2021/03/14 06:49:29;;;;;;;5.38;1.50;;;;;;;;;;5019643;28;20041;-76
2021/03/14 06:51:58;;;;;;;6.25;1.40;;;;;;;;;;5036525;28;20033;-76
2021/03/14 06:54:40;;;;;;;7.65;1.40;;;;;;;;;;5036795;28;20041;-76
2021/03/14 06:57:08;;;;;;;5.50;1.30;;;;;;;;;;5053235;28;20509;-75
2021/03/14 06:59:44;;;;;;;5.13;1.00;;;;;;;;;;5054160;28;20584;-75
2021/03/14 07:02:22;;;;;;;6.70;1.75;;;;;;;;;;5036676;28;20110;-76
2021/03/14 07:04:55;;;;;;;8.65;1.33;;;;;;;;;;5021594;28;20514;-76
2021/03/14 07:07:27;;;;;;;7.97;1.50;;;;;;;;;;5036695;28;20037;-76
2021/03/14 07:10:05;;;;;;;7.82;2.03;;;;;;;;;;5052609;28;20045;-76
2021/03/14 07:12:38;;;;;;;8.30;1.85;;;;;;;;;;5053244;28;20045;-76
2021/03/14 07:15:18;;;;;;;8.32;2.38;;;;;;;;;;5033465;28;20029;-76
2021/03/14 07:17:55;;;;;;;6.05;1.75;;;;;;;;;;5016937;28;20065;-76
2021/03/14 07:20:21;;;;;;;8.45;1.40;;;;;;;;;;5017012;28;20492;-76
2021/03/14 07:23:06;;;;;;;9.27;1.92;;;;;;;;;;5032650;28;20570;-76
2021/03/14 07:25:33;;;;;;;8.05;1.80;;;;;;;;;;5032982;28;20043;-76
2021/03/14 07:27:58;;;;;;;6.43;1.10;;;;;;;;;;5000046;28;20503;-76
2021/03/14 07:30:25;;;;;;;7.80;1.33;;;;;;;;;;5033634;28;20095;-76
2021/03/14 07:32:51;;;;;;;5.32;1.73;;;;;;;;;;5016513;28;20118;-76
2021/03/14 07:35:16;;;;;;;5.03;1.63;;;;;;;;;;5032775;28;20495;-76
2021/03/14 07:37:42;;;;;;;6.07;1.00;;;;;;;;;;4999890;28;20040;-76
2021/03/14 07:40:15;;;;;;;8.48;2.10;;;;;;;;;;5019797;28;20114;-76
2021/03/14 07:42:41;;;;;;;5.30;1.63;;;;;;;;;;5036013;28;20048;-76
2021/03/14 07:45:11;;;;;;;6.10;1.40;;;;;;;;;;5035775;28;20525;-76
2021/03/14 07:47:37;;;;;;;4.00;1.25;;;;;;;;;;5015250;28;20522;-76
2021/03/14 07:50:05;;;;;;;5.50;1.30;;;;;;;;;;5022790;28;20499;-76
2021/03/14 07:52:31;;;;;;;3.85;1.10;;;;;;;;;;5018635;28;20384;-76
2021/03/14 07:55:01;;;;;;;3.88;0.98;;;;;;;;;;5035692;28;20033;-76
2021/03/14 07:57:29;;;;;;;6.68;1.05;;;;;;;;;;5035679;28;20033;-76
2021/03/14 07:59:54;;;;;;;5.35;0.82;;;;;;;;;;5036229;28;20044;-77
2021/03/14 08:02:24;;;;;;;5.95;1.17;;;;;;;;;;5035439;28;20041;-77
2021/03/14 08:04:50;;;;;;;4.88;1.35;;;;;;;;;;5052180;28;20045;-76
2021/03/14 08:07:16;;;;;;;4.05;1.00;;;;;;;;;;5035338;28;20041;-77
2021/03/14 08:09:49;;;;;;;6.97;1.00;;;;;;;;;;5035840;28;20564;-77
2021/03/14 08:12:21;;;;;;;3.15;0.73;;;;;;;;;;5018674;28;20116;-76
2021/03/14 08:14:49;;;;;;;3.35;1.08;;;;;;;;;;5050989;28;20526;-76
2021/03/14 08:17:21;;;;;;;10.30;1.33;;;;;;;;;;5019054;28;20139;-76
2021/03/14 08:19:47;;;;;;;5.85;0.90;;;;;;;;;;5052365;28;20600;-76
2021/03/14 08:22:38;;;;;;;13.27;1.50;;;;;;;;;;5033960;28;20052;-76
2021/03/14 08:25:19;;;;;;;4.38;1.40;;;;;;;;;;5051612;28;20029;-76
2021/03/14 08:27:48;;;;;;;5.70;1.35;;;;;;;;;;5051530;28;20060;-76
2021/03/14 08:30:29;;;;;;;4.65;1.13;;;;;;;;;;5051334;28;20048;-76
2021/03/14 08:33:25;;;;;;;3.75;1.20;;;;;;;;;;5052480;28;20506;-76
2021/03/14 08:36:04;;;;;;;7.13;0.95;;;;;;;;;;5051599;28;20040;-80
2021/03/14 08:38:43;;;;;;;6.63;1.23;;;;;;;;;;5003123;28;20060;-82
2021/03/14 08:41:18;;;;;;;3.97;1.05;;;;;;;;;;5017305;28;20079;-80
2021/03/14 08:43:45;;;;;;;4.50;1.08;;;;;;;;;;5034463;28;20033;-79
2021/03/14 08:46:11;;;;;;;3.28;0.85;;;;;;;;;;5018301;28;20032;-80
2021/03/14 08:48:37;;;;;;;5.00;1.52;;;;;;;;;;5051024;28;20178;-81
2021/03/14 08:51:09;;;;;;;3.83;1.02;;;;;;;;;;5034176;28;20086;-80
2021/03/14 08:53:36;;;;;;;6.90;1.15;;;;;;;;;;5018312;28;20041;-79
2021/03/14 08:56:02;;;;;;;11.27;1.23;;;;;;;;;;5018250;28;20090;-80
2021/03/14 08:58:28;;;;;;;10.98;0.93;;;;;;;;;;5018040;28;20108;-80
2021/03/14 09:01:04;;;;;;;4.88;0.73;;;;;;;;;;5034663;28;20668;-79
2021/03/14 09:03:29;;;;;;;4.10;1.20;;;;;;;;;;5017950;28;20075;-80
2021/03/14 09:06:13;;;;;;;4.05;0.65;;;;;;;;;;5017688;28;20057;-80
2021/03/14 09:08:38;;;;;;;2.95;0.90;;;;;;;;;;5034311;28;20082;-80
2021/03/14 09:11:04;;;;;;;2.25;0.60;;;;;;;;;;5017468;28;20088;-80
2021/03/14 09:13:29;;;;;;;4.03;0.88;;;;;;;;;;5017276;28;20392;-80
2021/03/14 09:15:55;;;;;;;2.38;0.70;;;;;;;;;;5033962;28;20025;-79
2021/03/14 09:18:24;;;;;;;2.63;0.70;;;;;;;;;;5033928;28;20099;-80
2021/03/14 09:20:59;;;;;;;2.70;1.23;;;;;;;;;;5000585;28;20048;-79
2021/03/14 09:23:24;;;;;;;1.88;0.63;;;;;;;;;;5017506;28;20517;-79
2021/03/14 09:25:54;;;;;;;3.83;0.73;;;;;;;;;;5034020;28;20037;-79
2021/03/14 09:28:19;;;;;;;2.17;0.73;;;;;;;;;;5033687;28;20056;-79
2021/03/14 09:30:44;;;;;;;2.10;0.90;;;;;;;;;;5017320;28;20407;-79
2021/03/14 09:33:12;;;;;;;2.78;0.77;;;;;;;;;;5033605;28;20041;-81
2021/03/14 09:35:42;;;;;;;1.85;0.63;;;;;;;;;;5033974;28;20427;-79
2021/03/14 09:38:11;;;;;;;2.30;0.45;;;;;;;;;;5034377;28;20029;-79
2021/03/14 09:40:44;;;;;;;2.05;0.80;;;;;;;;;;5034019;28;20044;-78
2021/03/14 09:43:13;;;;;;;2.05;0.70;;;;;;;;;;5050936;28;20080;-79
2021/03/14 09:45:44;;;;;;;1.45;0.60;;;;;;;;;;5017529;28;20120;-79
2021/03/14 09:48:12;;;;;;;2.80;0.85;;;;;;;;;;5033743;28;20111;-77
2021/03/14 09:50:41;;;;;;;2.80;0.93;;;;;;;;;;5013737;28;20034;-78
2021/03/14 09:53:07;;;;;;;1.27;0.90;;;;;;;;;;4998128;28;20034;-79
2021/03/14 09:55:42;;;;;;;1.48;0.70;;;;;;;;;;4997816;28;20037;-76
2021/03/14 09:58:09;;;;;;;1.92;0.70;;;;;;;;;;5030121;28;20099;-78
2021/03/14 10:00:34;;;;;;;1.20;0.57;;;;;;;;;;4997228;28;20531;-78
2021/03/14 10:03:01;;;;;;;1.50;0.75;;;;;;;;;;4997810;28;20033;-78
2021/03/14 10:05:27;;;;;;;2.33;1.08;;;;;;;;;;4997285;28;20040;-78
2021/03/14 10:07:53;;;;;;;2.05;0.93;;;;;;;;;;4997482;28;20496;-78
2021/03/14 10:10:18;;;;;;;2.35;1.00;;;;;;;;;;4997633;28;20559;-79
2021/03/14 10:12:44;;;;;;;1.70;0.70;;;;;;;;;;4998001;28;20052;-79
2021/03/14 10:15:13;;;;;;;1.95;0.95;;;;;;;;;;5013712;28;20029;-79
2021/03/14 10:17:39;;;;;;;2.17;0.77;;;;;;;;;;5033753;28;20498;-79
2021/03/14 10:20:05;;;;;;;2.20;0.90;;;;;;;;;;5033322;28;20052;-79
2021/03/14 10:22:31;;;;;;;1.35;0.70;;;;;;;;;;5000186;28;20029;-78
2021/03/14 10:24:56;;;;;;;1.67;0.73;;;;;;;;;;5033509;28;20514;-79
2021/03/14 10:27:22;;;;;;;1.60;0.65;;;;;;;;;;5033529;28;20041;-79
2021/03/14 10:29:56;;;;;;;4.13;1.23;;;;;;;;;;5016369;28;20064;-78
2021/03/14 10:32:27;;;;;;;4.97;0.63;;;;;;;;;;5017491;28;20037;-78
2021/03/14 10:34:57;;;;;;;1.80;0.77;;;;;;;;;;5000803;28;20055;-78
2021/03/14 10:37:29;;;;;;;6.10;1.02;;;;;;;;;;5001369;28;20029;-78
2021/03/14 10:40:01;;;;;;;2.67;0.82;;;;;;;;;;5000664;28;20029;-78
2021/03/14 10:42:38;;;;;;;5.85;0.98;;;;;;;;;;5028635;28;20061;-78
2021/03/14 10:45:08;;;;;;;2.65;1.27;;;;;;;;;;5014763;28;20048;-79
2021/03/14 10:47:34;;;;;;;4.72;0.93;;;;;;;;;;5049986;28;20029;-78
2021/03/14 10:50:29;;;;;;;5.82;0.85;;;;;;;;;;5033623;28;20041;-79
2021/03/14 10:53:14;;;;;;;3.05;0.95;;;;;;;;;;5037393;28;20065;-79
2021/03/14 10:55:41;;;;;;;2.53;0.80;;;;;;;;;;5017007;28;20487;-78
2021/03/14 10:58:07;;;;;;;3.90;1.00;;;;;;;;;;5033116;28;20124;-78
2021/03/14 11:00:34;;;;;;;3.15;0.80;;;;;;;;;;5017041;28;20033;-77
2021/03/14 11:03:00;;;;;;;1.90;0.75;;;;;;;;;;5000877;28;20061;-78
2021/03/14 11:05:26;;;;;;;3.22;0.80;;;;;;;;;;5000409;28;20049;-78
2021/03/14 11:08:01;;;;;;;4.18;0.93;;;;;;;;;;5000198;28;20045;-79
2021/03/14 11:10:27;;;;;;;5.05;0.98;;;;;;;;;;5000433;28;20056;-79
2021/03/14 11:12:52;;;;;;;1.60;0.77;;;;;;;;;;4999925;28;20579;-78
2021/03/14 11:15:21;;;;;;;1.70;0.70;;;;;;;;;;5014416;28;20033;-78
2021/03/14 11:17:46;;;;;;;1.63;0.65;;;;;;;;;;5016584;28;20033;-78
2021/03/14 11:20:12;;;;;;;2.22;1.10;;;;;;;;;;5016076;28;20033;-78
2021/03/14 11:22:38;;;;;;;2.25;0.70;;;;;;;;;;5016040;28;20072;-78
2021/03/14 11:25:03;;;;;;;2.78;0.70;;;;;;;;;;5016582;28;20057;-78
2021/03/14 11:27:29;;;;;;;4.72;2.50;;;;;;;;;;5016301;28;20493;-78
2021/03/14 11:29:54;;;;;;;7.13;3.15;;;;;;;;;;5016378;28;20029;-78
2021/03/14 11:32:20;;;;;;;6.00;3.95;;;;;;;;;;5032524;28;20099;-78
2021/03/14 11:34:46;;;;;;;7.95;4.82;;;;;;;;;;5032632;28;20056;-78
2021/03/14 11:37:11;;;;;;;7.15;4.55;;;;;;;;;;5033034;28;20100;-78
2021/03/14 11:39:37;;;;;;;7.18;4.43;;;;;;;;;;5016629;28;20099;-78
2021/03/14 11:42:03;;;;;;;7.40;4.18;;;;;;;;;;5015463;28;20033;-78
2021/03/14 11:44:29;;;;;;;8.88;3.40;;;;;;;;;;5016233;28;20148;-78
2021/03/14 11:46:54;;;;;;;5.68;3.00;;;;;;;;;;5016231;28;20132;-78
2021/03/14 11:49:20;;;;;;;6.43;2.80;;;;;;;;;;5017782;28;20033;-78
2021/03/14 11:51:46;;;;;;;4.93;2.80;;;;;;;;;;5051961;28;20487;-78
2021/03/14 11:54:16;;;;;;;4.85;2.70;;;;;;;;;;5019019;28;20029;-78
2021/03/14 11:56:41;;;;;;;4.75;2.63;;;;;;;;;;5052520;28;20454;-79
2021/03/14 11:59:07;;;;;;;5.35;2.83;;;;;;;;;;5018952;28;20090;-78
2021/03/14 12:01:32;;;;;;;5.32;2.40;;;;;;;;;;5018958;28;20037;-78
2021/03/14 12:03:57;;;;;;;3.45;1.88;;;;;;;;;;5019128;28;20033;-78
2021/03/14 12:06:23;;;;;;;4.25;1.70;;;;;;;;;;5035238;28;20048;-78
2021/03/14 12:08:48;;;;;;;5.20;2.22;;;;;;;;;;5035273;28;20759;-78
2021/03/14 12:11:14;;;;;;;3.83;1.65;;;;;;;;;;5018530;28;20449;-78
2021/03/14 12:13:39;;;;;;;5.45;1.90;;;;;;;;;;5035604;28;20094;-78
2021/03/14 12:16:05;;;;;;;3.20;1.92;;;;;;;;;;5018683;28;20786;-78
2021/03/14 12:18:31;;;;;;;3.70;1.70;;;;;;;;;;5018862;28;20037;-78
2021/03/14 12:20:57;;;;;;;4.03;1.75;;;;;;;;;;5034790;28;20040;-78
2021/03/14 12:23:22;;;;;;;3.72;1.63;;;;;;;;;;5018355;28;20029;-78
2021/03/14 12:25:48;;;;;;;4.15;1.67;;;;;;;;;;5002032;28;20039;-75
2021/03/14 12:28:13;;;;;;;2.88;1.20;;;;;;;;;;5035225;28;20089;-75
2021/03/14 12:30:39;;;;;;;4.57;1.30;;;;;;;;;;5034754;28;20114;-75
2021/03/14 12:33:04;;;;;;;3.08;1.23;;;;;;;;;;5035142;28;20076;-75
2021/03/14 12:35:30;;;;;;;1.90;0.80;;;;;;;;;;5002132;28;20033;-75
2021/03/14 12:37:55;;;;;;;3.53;1.38;;;;;;;;;;5034771;28;20045;-75
2021/03/14 12:40:20;;;;;;;3.50;1.52;;;;;;;;;;5014664;28;20113;-75
2021/03/14 12:42:46;;;;;;;2.72;1.10;;;;;;;;;;5032143;28;20112;-74
2021/03/14 12:45:12;;;;;;;4.50;1.10;;;;;;;;;;5018157;28;20041;-75
2021/03/14 12:47:37;;;;;;;3.60;0.70;;;;;;;;;;5001977;28;20025;-75
2021/03/14 12:50:05;;;;;;;3.17;0.90;;;;;;;;;;5034371;28;20036;-74
2021/03/14 12:52:31;;;;;;;2.47;0.90;;;;;;;;;;5034615;28;20033;-75
2021/03/14 12:54:56;;;;;;;2.70;0.90;;;;;;;;;;5018269;28;20068;-74
2021/03/14 12:57:22;;;;;;;2.75;0.85;;;;;;;;;;5034585;28;20062;-74
2021/03/14 12:59:47;;;;;;;2.20;0.60;;;;;;;;;;5034410;28;20399;-74
2021/03/14 13:02:12;;;;;;;2.80;1.02;;;;;;;;;;5034258;28;20102;-75
2021/03/14 13:04:38;;;;;;;1.55;0.63;;;;;;;;;;5050966;28;20411;-78
2021/03/14 13:07:04;;;;;;;1.52;0.80;;;;;;;;;;5033721;28;20036;-77
2021/03/14 13:09:29;;;;;;;2.85;1.20;;;;;;;;;;5000613;28;20454;-76
2021/03/14 13:11:55;;;;;;;2.50;0.82;;;;;;;;;;5034180;28;20055;-76
2021/03/14 13:14:21;;;;;;;1.65;0.60;;;;;;;;;;5004814;28;20037;-76
2021/03/14 13:16:50;;;;;;;2.40;0.73;;;;;;;;;;5014600;28;20395;-75
2021/03/14 13:19:15;;;;;;;1.95;0.50;;;;;;;;;;4999116;28;20396;-75
2021/03/14 13:21:41;;;;;;;2.58;0.90;;;;;;;;;;5013795;28;20044;-75
2021/03/14 13:24:07;;;;;;;0.95;0.50;;;;;;;;;;5014071;28;20041;-75
2021/03/14 13:26:32;;;;;;;2.08;0.70;;;;;;;;;;5013989;28;20104;-75
2021/03/14 13:28:58;;;;;;;1.45;0.50;;;;;;;;;;5013863;28;20076;-75
2021/03/14 13:31:23;;;;;;;2.53;0.63;;;;;;;;;;5014071;28;20064;-75
2021/03/14 13:33:49;;;;;;;1.75;0.68;;;;;;;;;;5047379;28;20545;-75
2021/03/14 13:36:14;;;;;;;2.15;0.95;;;;;;;;;;5014257;28;20037;-75
2021/03/14 13:38:42;;;;;;;2.85;0.95;;;;;;;;;;4997460;28;20415;-75
2021/03/14 13:41:07;;;;;;;3.58;1.48;;;;;;;;;;5059862;28;20033;-75
2021/03/14 13:43:33;;;;;;;11.07;7.07;;;;;;;;;;5016784;28;20060;-75
2021/03/14 13:45:59;;;;;;;9.25;6.68;;;;;;;;;;5034064;28;20542;-75
2021/03/14 13:48:24;;;;;;;9.65;6.63;;;;;;;;;;5017786;28;20410;-76
2021/03/14 13:50:49;;;;;;;9.20;5.95;;;;;;;;;;5033146;28;20067;-76
2021/03/14 13:53:15;;;;;;;8.38;5.97;;;;;;;;;;5000705;28;20060;-78
2021/03/14 13:55:40;;;;;;;7.70;5.65;;;;;;;;;;5017212;28;20502;-78
2021/03/14 13:58:06;;;;;;;6.97;4.68;;;;;;;;;;5017091;28;20122;-77
2021/03/14 14:00:32;;;;;;;7.22;4.93;;;;;;;;;;5032515;28;20033;-74
2021/03/14 14:02:59;;;;;;;8.13;4.50;;;;;;;;;;5033277;28;20033;-75
2021/03/14 14:05:24;;;;;;;7.38;3.88;;;;;;;;;;5016834;28;20032;-75
2021/03/14 14:07:49;;;;;;;9.95;4.40;;;;;;;;;;5049497;28;20119;-75
2021/03/14 14:10:15;;;;;;;8.00;3.90;;;;;;;;;;5032783;28;20037;-75
2021/03/14 14:12:40;;;;;;;6.13;3.40;;;;;;;;;;5030837;28;20042;-75
2021/03/14 14:15:06;;;;;;;8.68;2.85;;;;;;;;;;5033359;28;20033;-75
2021/03/14 14:17:32;;;;;;;6.38;3.60;;;;;;;;;;5016987;28;20120;-75
2021/03/14 14:19:57;;;;;;;8.20;2.70;;;;;;;;;;5035879;28;20060;-75
2021/03/14 14:22:23;;;;;;;7.82;3.40;;;;;;;;;;5033280;28;20042;-75
2021/03/14 14:24:48;;;;;;;9.45;3.15;;;;;;;;;;5046409;28;20367;-75
2021/03/14 14:27:14;;;;;;;7.47;2.50;;;;;;;;;;5036389;28;20037;-75
2021/03/14 14:29:39;;;;;;;15.48;3.33;;;;;;;;;;5020197;28;20052;-75
2021/03/14 14:32:05;;;;;;;10.57;3.05;;;;;;;;;;5001117;28;20052;-75
2021/03/14 14:34:31;;;;;;;11.50;2.55;;;;;;;;;;5016391;28;20041;-75
2021/03/14 14:36:57;;;;;;;7.63;3.22;;;;;;;;;;5018445;28;20392;-75
2021/03/14 14:39:24;;;;;;;10.93;2.85;;;;;;;;;;5016787;28;20175;-75
2021/03/14 14:41:50;;;;;;;10.35;2.85;;;;;;;;;;5032064;28;20041;-74